Time;durP1;ratioP1;P1;durP2;ratioP2;P2;SDS_P1;SDS_P2;PMS_P1;PMS_P2;Temp;Humidity;BMP_temperature;BMP_pressure;BME280_temperature;BME280_humidity;BME280_pressure;Samples;Min_cycle;Max_cycle;Signal;HPM_P1;HPM_P2
2021/12/28 00:01:34;;;;;;;3.85;3.03;;;22.20;29.70;;;;;;5149061;27;20456;-69
2021/12/28 00:04:05;;;;;;;3.83;3.10;;;22.20;29.70;;;;;;5149120;27;20070;-68
2021/12/28 00:06:33;;;;;;;4.22;3.28;;;22.20;29.70;;;;;;5130726;27;20047;-70
2021/12/28 00:09:00;;;;;;;2.75;2.55;;;22.20;29.70;;;;;;5149000;27;20514;-68
2021/12/28 00:11:28;;;;;;;3.45;3.13;;;22.20;29.70;;;;;;5149219;27;20471;-69
2021/12/28 00:14:00;;;;;;;3.88;3.10;;;22.20;29.70;;;;;;5149054;27;20050;-68
2021/12/28 00:16:34;;;;;;;4.57;3.63;;;22.20;29.70;;;;;;5148936;27;20050;-68
2021/12/28 00:19:02;;;;;;;3.45;3.08;;;22.20;29.70;;;;;;5130247;27;20039;-68
2021/12/28 00:21:30;;;;;;;3.58;2.80;;;22.20;29.70;;;;;;5149143;27;20042;-68
2021/12/28 00:23:58;;;;;;;3.20;2.90;;;22.20;29.70;;;;;;5147898;27;20117;-68
2021/12/28 00:26:27;;;;;;;3.30;2.97;;;22.20;30.10;;;;;;5148757;27;20507;-69
2021/12/28 00:28:54;;;;;;;3.60;3.00;;;22.20;29.70;;;;;;5148067;27;20038;-69
2021/12/28 00:31:23;;;;;;;3.95;3.30;;;22.20;29.70;;;;;;5148169;27;20595;-68
2021/12/28 00:33:52;;;;;;;3.78;3.10;;;22.20;29.70;;;;;;5148178;27;20050;-68
2021/12/28 00:36:19;;;;;;;4.07;3.17;;;22.20;29.70;;;;;;5148476;27;20342;-67
2021/12/28 00:38:47;;;;;;;5.00;3.50;;;22.20;29.70;;;;;;5148064;27;20085;-69
2021/12/28 00:41:14;;;;;;;4.07;3.20;;;22.20;29.70;;;;;;5130320;27;20042;-68
2021/12/28 00:43:42;;;;;;;5.53;3.72;;;22.20;29.70;;;;;;5147443;27;20051;-69
2021/12/28 00:46:10;;;;;;;4.38;3.58;;;22.20;29.70;;;;;;5113119;27;20204;-69
2021/12/28 00:48:38;;;;;;;4.32;3.88;;;22.20;29.70;;;;;;5147327;27;20078;-68
2021/12/28 00:51:06;;;;;;;3.60;2.88;;;22.20;29.70;;;;;;5148226;27;20086;-68
2021/12/28 00:53:33;;;;;;;4.72;3.55;;;22.20;29.60;;;;;;5147408;27;20138;-68
2021/12/28 00:56:01;;;;;;;3.22;2.78;;;22.20;29.60;;;;;;5148123;27;20487;-69
2021/12/28 00:58:28;;;;;;;3.08;2.72;;;22.20;29.60;;;;;;5146079;27;20103;-68
2021/12/28 01:00:56;;;;;;;3.30;2.88;;;22.20;29.70;;;;;;5147783;27;20042;-68
2021/12/28 01:03:23;;;;;;;3.15;2.85;;;22.20;29.70;;;;;;5147909;27;20473;-68
2021/12/28 01:05:51;;;;;;;3.45;2.90;;;22.20;29.70;;;;;;5147589;27;20150;-69
2021/12/28 01:08:19;;;;;;;3.05;2.75;;;22.20;29.70;;;;;;5147294;27;20042;-68
2021/12/28 01:10:51;;;;;;;3.63;2.65;;;22.10;29.60;;;;;;5147948;27;20115;-69
2021/12/28 01:13:20;;;;;;;3.85;3.00;;;22.10;29.70;;;;;;5128980;27;20105;-69
2021/12/28 01:15:49;;;;;;;3.95;3.20;;;22.10;29.70;;;;;;5147681;27;20082;-68
2021/12/28 01:18:18;;;;;;;3.00;2.70;;;22.10;29.60;;;;;;5146925;27;20046;-68
2021/12/28 01:20:45;;;;;;;4.82;3.30;;;22.10;29.70;;;;;;5147069;27;20510;-69
2021/12/28 01:23:13;;;;;;;4.15;2.90;;;22.10;29.70;;;;;;5147531;27;20051;-68
2021/12/28 01:25:41;;;;;;;4.03;3.13;;;22.10;29.70;;;;;;5146751;27;20086;-68
2021/12/28 01:28:09;;;;;;;4.03;3.10;;;22.10;29.70;;;;;;5147789;27;20091;-68
2021/12/28 01:30:40;;;;;;;3.35;3.05;;;22.10;29.70;;;;;;5146751;27;20487;-68
2021/12/28 01:33:08;;;;;;;3.45;2.90;;;22.10;29.70;;;;;;5147721;27;20047;-68
2021/12/28 01:35:36;;;;;;;3.60;2.90;;;22.10;29.70;;;;;;5146823;27;20290;-68
2021/12/28 01:38:03;;;;;;;3.60;3.25;;;22.10;29.70;;;;;;5147081;27;20126;-68
2021/12/28 01:40:34;;;;;;;3.15;2.65;;;22.10;29.70;;;;;;5147386;27;20093;-68
2021/12/28 01:43:11;;;;;;;3.20;2.67;;;22.10;29.70;;;;;;5147353;27;20183;-68
2021/12/28 01:45:45;;;;;;;3.25;2.70;;;22.10;29.70;;;;;;5147007;27;20579;-68
2021/12/28 01:48:29;;;;;;;3.65;3.05;;;22.10;29.70;;;;;;5147167;27;20511;-68
2021/12/28 01:50:59;;;;;;;3.78;2.58;;;22.10;29.70;;;;;;5147082;27;20134;-68
2021/12/28 01:53:28;;;;;;;3.78;2.55;;;22.10;29.70;;;;;;5147271;27;20046;-68
2021/12/28 01:55:58;;;;;;;3.38;3.08;;;22.10;29.70;;;;;;5146225;27;20346;-68
2021/12/28 01:58:26;;;;;;;3.22;2.65;;;22.10;29.70;;;;;;5147267;27;20137;-68
2021/12/28 02:00:54;;;;;;;2.90;2.67;;;22.10;29.70;;;;;;5146786;27;20070;-68
2021/12/28 02:03:23;;;;;;;3.83;2.67;;;22.10;29.70;;;;;;5128971;27;20078;-68
2021/12/28 02:05:51;;;;;;;3.35;2.95;;;22.00;29.70;;;;;;5146918;27;20155;-70
2021/12/28 02:08:19;;;;;;;3.00;2.58;;;22.00;29.70;;;;;;5147537;27;20299;-68
2021/12/28 02:10:49;;;;;;;2.95;2.75;;;22.00;30.10;;;;;;5151118;27;20046;-68
2021/12/28 02:13:17;;;;;;;2.75;2.47;;;22.00;29.70;;;;;;5133353;27;20122;-68
2021/12/28 02:15:45;;;;;;;2.83;2.40;;;22.10;29.80;;;;;;5150868;27;20046;-68
2021/12/28 02:18:14;;;;;;;2.90;2.60;;;22.00;29.70;;;;;;5151330;27;20130;-68
2021/12/28 02:20:41;;;;;;;3.17;2.88;;;22.00;29.70;;;;;;5132277;27;20046;-68
2021/12/28 02:23:09;;;;;;;2.25;2.05;;;22.00;29.70;;;;;;5151330;27;20042;-68
2021/12/28 02:25:37;;;;;;;4.03;2.78;;;22.00;29.70;;;;;;5150575;27;20185;-68
2021/12/28 02:28:07;;;;;;;3.47;2.78;;;22.10;29.70;;;;;;5151462;27;20114;-68
2021/12/28 02:30:36;;;;;;;3.22;2.72;;;22.00;29.70;;;;;;5150642;27;20051;-68
2021/12/28 02:33:04;;;;;;;3.60;2.85;;;22.10;29.70;;;;;;5151361;27;20412;-68
2021/12/28 02:35:32;;;;;;;3.28;2.78;;;22.00;29.90;;;;;;5150234;27;20481;-68
2021/12/28 02:38:00;;;;;;;3.30;3.00;;;22.00;29.70;;;;;;5150713;27;20043;-68
2021/12/28 02:40:29;;;;;;;3.17;2.70;;;22.00;29.60;;;;;;5150445;27;20130;-68
2021/12/28 02:42:59;;;;;;;2.85;2.20;;;22.10;29.70;;;;;;5150442;27;20125;-68
2021/12/28 02:45:37;;;;;;;2.58;2.38;;;22.10;29.70;;;;;;5150162;27;20089;-68
2021/12/28 02:48:05;;;;;;;4.63;3.28;;;22.10;29.70;;;;;;5150755;27;20391;-68
2021/12/28 02:50:39;;;;;;;3.72;2.88;;;22.10;29.70;;;;;;5132155;27;20038;-68
2021/12/28 02:53:07;;;;;;;2.88;2.58;;;22.00;29.60;;;;;;5150364;27;20043;-68
2021/12/28 02:55:36;;;;;;;2.83;2.55;;;22.00;29.60;;;;;;5131208;27;20501;-68
2021/12/28 02:58:07;;;;;;;3.00;2.50;;;22.00;29.70;;;;;;5150865;27;20133;-68
2021/12/28 03:00:42;;;;;;;2.63;2.28;;;22.00;29.70;;;;;;5149686;27;20081;-68
2021/12/28 03:03:13;;;;;;;3.53;2.30;;;22.00;29.70;;;;;;5150302;27;20043;-68
2021/12/28 03:05:40;;;;;;;;;;;22.00;29.70;;;;;;5150125;27;20126;-68
2021/12/28 03:08:08;;;;;;;2.85;2.58;;;22.00;29.70;;;;;;5150299;27;19926;-68
2021/12/28 03:10:37;;;;;;;3.20;2.70;;;22.00;29.70;;;;;;5150141;27;20101;-68
2021/12/28 03:13:06;;;;;;;2.53;2.20;;;22.00;29.70;;;;;;5149823;27;20445;-68
2021/12/28 03:15:33;;;;;;;2.40;2.20;;;22.00;29.70;;;;;;5131450;27;20046;-68
2021/12/28 03:18:01;;;;;;;2.75;2.45;;;22.00;29.70;;;;;;5149735;27;20073;-68
2021/12/28 03:20:28;;;;;;;2.70;2.47;;;22.00;29.70;;;;;;5149251;27;20081;-68
2021/12/28 03:22:55;;;;;;;2.65;2.40;;;22.00;29.70;;;;;;5150328;27;20129;-68
2021/12/28 03:25:23;;;;;;;2.50;2.30;;;22.00;29.70;;;;;;5149124;27;20081;-68
2021/12/28 03:27:50;;;;;;;2.40;2.17;;;22.00;29.70;;;;;;5149409;27;20718;-68
2021/12/28 03:30:18;;;;;;;3.17;2.42;;;22.00;29.70;;;;;;5131400;27;20133;-68
2021/12/28 03:32:45;;;;;;;2.60;2.40;;;22.00;29.70;;;;;;5149583;27;20498;-68
2021/12/28 03:35:14;;;;;;;2.35;2.15;;;22.00;29.70;;;;;;5131366;27;20369;-68
2021/12/28 03:37:42;;;;;;;2.50;2.22;;;22.00;29.70;;;;;;5149482;27;20129;-68
2021/12/28 03:40:12;;;;;;;2.88;2.22;;;22.00;29.70;;;;;;5150120;27;20126;-68
2021/12/28 03:42:39;;;;;;;2.45;2.25;;;22.00;29.70;;;;;;5130253;27;20469;-68
2021/12/28 03:45:09;;;;;;;2.67;2.13;;;22.00;29.70;;;;;;5150096;27;20107;-69
2021/12/28 03:47:36;;;;;;;2.55;2.35;;;22.00;29.70;;;;;;5130310;27;20134;-68
2021/12/28 03:50:06;;;;;;;2.20;2.00;;;22.00;29.80;;;;;;5149299;27;20051;-68
2021/12/28 03:52:33;;;;;;;2.83;2.28;;;22.00;29.70;;;;;;5149492;27;20145;-68
2021/12/28 03:55:01;;;;;;;3.22;2.50;;;22.00;29.70;;;;;;5149211;27;20058;-68
2021/12/28 03:57:28;;;;;;;2.33;2.10;;;21.90;29.70;;;;;;5130385;27;20137;-68
2021/12/28 03:59:55;;;;;;;2.58;2.33;;;21.90;29.70;;;;;;5149391;27;20108;-68
2021/12/28 04:02:22;;;;;;;2.55;1.90;;;21.90;29.70;;;;;;5130166;27;20541;-68
2021/12/28 04:04:49;;;;;;;2.35;2.15;;;21.90;29.70;;;;;;5149291;27;20038;-68
2021/12/28 04:07:20;;;;;;;2.03;1.88;;;21.90;29.70;;;;;;5149024;27;20296;-68
2021/12/28 04:10:00;;;;;;;2.58;2.38;;;21.90;29.80;;;;;;5149112;27;20411;-68
2021/12/28 04:12:31;;;;;;;2.47;2.28;;;21.90;29.80;;;;;;5148933;27;20390;-68
2021/12/28 04:14:58;;;;;;;2.83;2.58;;;22.00;29.80;;;;;;5149344;27;20125;-68
2021/12/28 04:17:27;;;;;;;3.13;2.30;;;22.00;29.80;;;;;;5148129;27;20137;-68
2021/12/28 04:19:56;;;;;;;2.53;2.00;;;21.90;29.70;;;;;;5149274;27;20070;-68
2021/12/28 04:22:23;;;;;;;3.08;2.28;;;22.00;29.70;;;;;;5148231;27;20309;-68
2021/12/28 04:24:50;;;;;;;2.35;2.15;;;21.90;29.70;;;;;;5148252;27;20501;-68
2021/12/28 04:27:22;;;;;;;2.20;2.00;;;22.00;29.70;;;;;;5148674;27;20315;-68
2021/12/28 04:29:49;;;;;;;2.50;2.30;;;22.00;29.70;;;;;;5148432;27;20122;-68
2021/12/28 04:32:17;;;;;;;2.35;2.08;;;22.00;29.70;;;;;;5147808;27;20480;-68
2021/12/28 04:34:48;;;;;;;2.10;1.67;;;22.00;29.70;;;;;;5148745;27;20115;-68
2021/12/28 04:37:15;;;;;;;2.03;1.88;;;22.00;29.70;;;;;;5147950;27;20057;-69
2021/12/28 04:39:42;;;;;;;2.03;1.88;;;22.00;29.70;;;;;;5130321;27;20074;-68
2021/12/28 04:42:10;;;;;;;2.78;2.42;;;22.00;29.70;;;;;;5129525;27;20384;-68
2021/12/28 04:44:37;;;;;;;2.08;1.88;;;22.00;29.70;;;;;;5147940;27;20046;-68
2021/12/28 04:47:04;;;;;;;2.28;1.90;;;22.00;29.70;;;;;;5146289;27;20296;-68
2021/12/28 04:49:31;;;;;;;2.38;2.00;;;21.90;29.70;;;;;;5148079;27;20078;-68
2021/12/28 04:51:59;;;;;;;1.77;1.67;;;21.90;29.70;;;;;;5129370;27;20590;-68
2021/12/28 04:54:26;;;;;;;2.53;2.30;;;21.90;29.70;;;;;;5147806;27;20491;-68
2021/12/28 04:56:54;;;;;;;3.00;2.33;;;21.90;29.70;;;;;;5147963;27;20047;-68
2021/12/28 04:59:21;;;;;;;1.90;1.80;;;21.90;29.70;;;;;;5147199;27;20144;-68
2021/12/28 05:01:48;;;;;;;2.47;1.98;;;21.90;29.70;;;;;;5147941;27;20118;-68
2021/12/28 05:04:15;;;;;;;2.60;1.88;;;21.90;29.70;;;;;;5147766;27;20209;-68
2021/12/28 05:06:46;;;;;;;2.15;1.80;;;21.90;29.70;;;;;;5147721;27;20047;-69
2021/12/28 05:09:15;;;;;;;2.65;2.05;;;21.90;29.70;;;;;;5128000;27;20130;-68
2021/12/28 05:11:43;;;;;;;2.10;1.90;;;21.90;29.70;;;;;;5147575;27;20050;-68
2021/12/28 05:14:10;;;;;;;2.45;1.95;;;21.90;29.70;;;;;;5129348;27;20082;-68
2021/12/28 05:16:38;;;;;;;1.75;1.65;;;21.90;29.70;;;;;;5146150;27;20074;-68
2021/12/28 05:19:06;;;;;;;1.90;1.80;;;21.90;29.70;;;;;;5147096;27;20051;-68
2021/12/28 05:21:35;;;;;;;3.50;1.80;;;21.90;29.70;;;;;;5129672;27;20499;-68
2021/12/28 05:24:02;;;;;;;1.98;1.77;;;21.90;29.70;;;;;;5128864;27;20523;-68
2021/12/28 05:26:30;;;;;;;1.65;1.55;;;21.90;29.70;;;;;;5146425;27;20047;-68
2021/12/28 05:28:57;;;;;;;1.60;1.50;;;21.90;29.70;;;;;;5127960;27;20082;-68
2021/12/28 05:31:27;;;;;;;2.13;1.67;;;21.90;29.80;;;;;;5147340;27;20125;-69
2021/12/28 05:33:55;;;;;;;1.90;1.80;;;21.90;29.70;;;;;;5147614;27;20046;-68
2021/12/28 05:36:23;;;;;;;2.20;2.00;;;21.90;29.80;;;;;;5147419;27;20074;-68
2021/12/28 05:38:50;;;;;;;1.77;1.67;;;21.90;29.80;;;;;;5146686;27;20088;-68
2021/12/28 05:41:18;;;;;;;1.77;1.60;;;21.90;29.80;;;;;;5146980;27;20047;-68
2021/12/28 05:43:45;;;;;;;1.83;1.73;;;21.90;29.80;;;;;;5146144;27;20051;-67
2021/12/28 05:46:12;;;;;;;2.38;2.17;;;21.90;29.80;;;;;;5146922;27;20078;-68
2021/12/28 05:48:39;;;;;;;2.22;1.55;;;21.90;29.80;;;;;;5146881;27;20047;-68
2021/12/28 05:51:06;;;;;;;2.22;1.75;;;21.90;29.80;;;;;;5147080;27;20065;-68
2021/12/28 05:53:34;;;;;;;1.85;1.75;;;21.90;29.80;;;;;;5129764;27;20098;-68
2021/12/28 05:56:01;;;;;;;2.38;2.17;;;21.90;29.80;;;;;;5122346;28;20047;-68
2021/12/28 05:58:28;;;;;;;2.35;1.85;;;21.90;29.80;;;;;;5092596;28;20784;-68
2021/12/28 06:00:55;;;;;;;1.73;1.63;;;21.90;29.80;;;;;;5111654;27;20140;-68
2021/12/28 06:03:23;;;;;;;1.73;1.55;;;21.90;29.80;;;;;;5123645;27;20043;-68
2021/12/28 06:05:50;;;;;;;2.65;1.90;;;21.90;29.80;;;;;;5108864;28;20043;-68
2021/12/28 06:08:17;;;;;;;2.60;2.17;;;21.90;29.70;;;;;;5123474;28;20573;-68
2021/12/28 06:10:59;;;;;;;2.30;2.10;;;21.90;30.00;;;;;;5109355;28;20229;-68
2021/12/28 06:13:27;;;;;;;2.65;2.45;;;21.90;29.50;;;;;;5115155;27;20526;-68
2021/12/28 06:15:55;;;;;;;2.70;2.50;;;21.90;29.50;;;;;;5119995;28;20117;-68
2021/12/28 06:18:22;;;;;;;2.38;2.00;;;21.90;29.40;;;;;;5116458;27;20055;-68
2021/12/28 06:20:49;;;;;;;2.60;2.17;;;21.90;29.40;;;;;;5116170;27;20130;-68
2021/12/28 06:23:17;;;;;;;2.58;2.35;;;21.90;29.40;;;;;;5128723;27;20070;-69
2021/12/28 06:25:44;;;;;;;3.08;2.33;;;21.90;29.50;;;;;;5127745;27;20050;-65
2021/12/28 06:31:52;;;;;;;2.85;2.50;;;21.90;29.60;;;;;;5108861;28;20043;-67
2021/12/28 06:34:19;;;;;;;3.17;2.63;;;22.00;29.50;;;;;;5108941;28;20082;-68
2021/12/28 06:36:46;;;;;;;2.13;1.92;;;22.00;29.50;;;;;;5116486;28;20487;-68
2021/12/28 06:39:13;;;;;;;2.35;2.13;;;22.00;29.40;;;;;;5129529;28;20082;-67
2021/12/28 06:41:41;;;;;;;2.00;1.80;;;22.00;29.40;;;;;;5129773;28;20078;-67
2021/12/28 06:44:10;;;;;;;2.45;2.10;;;22.00;29.40;;;;;;5129900;28;20078;-67
2021/12/28 06:46:38;;;;;;;2.05;1.88;;;22.00;29.40;;;;;;5127128;28;20068;-67
2021/12/28 06:49:06;;;;;;;1.92;1.75;;;22.00;29.30;;;;;;5128957;28;20047;-67
2021/12/28 06:51:33;;;;;;;2.53;2.17;;;22.00;29.30;;;;;;5127802;28;20107;-68
2021/12/28 06:54:00;;;;;;;2.83;1.92;;;22.00;29.40;;;;;;5127222;28;20051;-67
2021/12/28 06:56:27;;;;;;;2.40;2.20;;;22.00;29.30;;;;;;5129976;27;20407;-68
2021/12/28 06:58:54;;;;;;;2.65;2.30;;;22.00;29.40;;;;;;5124604;27;20518;-67
2021/12/28 07:01:22;;;;;;;3.08;2.33;;;22.00;29.40;;;;;;5122242;27;20066;-67
2021/12/28 07:03:51;;;;;;;2.20;2.00;;;22.10;29.50;;;;;;5121831;27;20514;-68
2021/12/28 07:06:18;;;;;;;1.95;1.70;;;22.10;29.50;;;;;;5122853;27;20067;-67
2021/12/28 07:08:50;;;;;;;2.33;2.10;;;22.10;29.50;;;;;;5127621;27;20074;-66
2021/12/28 07:11:17;;;;;;;1.85;1.70;;;22.10;29.50;;;;;;5127882;27;20047;-67
2021/12/28 07:13:45;;;;;;;1.80;1.70;;;22.20;29.60;;;;;;5115967;27;20062;-67
2021/12/28 07:16:13;;;;;;;2.22;1.52;;;22.20;29.60;;;;;;5131974;27;20074;-67
2021/12/28 07:18:41;;;;;;;1.90;1.80;;;22.10;29.50;;;;;;5127795;27;20043;-68
2021/12/28 07:21:08;;;;;;;3.08;2.15;;;22.20;29.60;;;;;;5126631;27;20079;-68
2021/12/28 07:23:35;;;;;;;2.10;1.90;;;22.20;29.50;;;;;;5116307;27;20125;-67
2021/12/28 07:26:03;;;;;;;2.13;1.92;;;22.20;29.60;;;;;;5104665;27;20043;-70
2021/12/28 07:28:30;;;;;;;1.88;1.73;;;22.30;29.70;;;;;;5129347;27;20039;-68
2021/12/28 07:30:57;;;;;;;2.30;2.10;;;22.30;29.80;;;;;;5126490;27;20075;-67
2021/12/28 07:33:25;;;;;;;2.42;2.15;;;22.30;29.90;;;;;;5122762;27;20088;-69
2021/12/28 07:35:52;;;;;;;1.92;1.65;;;22.40;29.90;;;;;;5123401;27;20462;-62
2021/12/28 07:38:19;;;;;;;3.03;2.10;;;22.40;29.90;;;;;;5125223;27;20490;-68
2021/12/28 07:40:46;;;;;;;3.03;2.28;;;22.50;29.90;;;;;;5122588;27;20092;-71
2021/12/28 07:43:14;;;;;;;4.55;1.67;;;22.50;29.90;;;;;;5130411;27;20135;-66
2021/12/28 07:45:41;;;;;;;2.75;2.15;;;22.60;29.90;;;;;;5128013;27;20145;-65
2021/12/28 07:48:09;;;;;;;3.50;2.00;;;22.60;29.80;;;;;;5126000;27;20101;-67
2021/12/28 07:50:36;;;;;;;3.25;2.72;;;22.60;29.70;;;;;;5126356;27;20134;-68
2021/12/28 07:53:05;;;;;;;3.42;1.83;;;22.60;29.70;;;;;;5128442;27;20051;-67
2021/12/28 07:55:33;;;;;;;3.55;2.35;;;22.70;29.70;;;;;;5129678;27;20583;-68
2021/12/28 07:58:00;;;;;;;2.20;2.00;;;22.70;29.60;;;;;;5127789;27;20066;-68
2021/12/28 08:00:28;;;;;;;2.38;2.17;;;22.70;29.50;;;;;;5126032;27;20039;-68
2021/12/28 08:02:56;;;;;;;2.65;2.22;;;22.80;29.50;;;;;;5127172;27;20057;-66
2021/12/28 08:05:23;;;;;;;2.53;2.15;;;22.80;29.40;;;;;;5124951;27;20062;-67
2021/12/28 08:07:51;;;;;;;7.45;2.33;;;22.80;29.40;;;;;;5126757;27;20071;-69
2021/12/28 08:10:21;;;;;;;3.15;2.40;;;22.90;29.40;;;;;;5126700;27;20035;-67
2021/12/28 08:12:51;;;;;;;3.08;2.78;;;22.90;29.30;;;;;;5123252;27;20082;-69
2021/12/28 08:15:19;;;;;;;5.45;3.28;;;23.00;29.30;;;;;;5111404;27;20074;-66
2021/12/28 08:17:46;;;;;;;2.70;2.50;;;23.00;29.30;;;;;;5131129;27;20055;-66
2021/12/28 08:20:15;;;;;;;2.47;2.28;;;23.10;29.20;;;;;;5131488;27;20082;-67
2021/12/28 08:22:44;;;;;;;3.30;2.90;;;23.10;29.20;;;;;;5129325;27;20104;-67
2021/12/28 08:25:14;;;;;;;3.78;2.67;;;23.10;29.20;;;;;;5120818;27;20515;-66
2021/12/28 08:27:41;;;;;;;5.45;2.88;;;23.20;29.10;;;;;;5121975;27;20514;-67
2021/12/28 08:30:10;;;;;;;3.33;2.78;;;23.20;29.10;;;;;;5124723;27;20139;-68
2021/12/28 08:32:38;;;;;;;2.72;2.40;;;23.20;29.00;;;;;;5125618;27;20043;-71
2021/12/28 08:35:06;;;;;;;2.50;2.30;;;23.30;29.00;;;;;;5125585;27;20043;-68
2021/12/28 08:37:34;;;;;;;2.88;2.60;;;23.30;29.00;;;;;;5128090;27;20085;-67
2021/12/28 08:40:03;;;;;;;3.85;2.85;;;23.30;28.90;;;;;;5124291;27;20062;-65
2021/12/28 08:42:30;;;;;;;4.40;3.45;;;23.40;29.00;;;;;;5124614;27;20051;-66
2021/12/28 08:44:57;;;;;;;3.00;2.20;;;23.40;29.00;;;;;;5126371;27;20156;-66
2021/12/28 08:47:27;;;;;;;3.17;2.83;;;23.40;28.90;;;;;;5130550;27;20080;-66
2021/12/28 08:49:55;;;;;;;5.18;2.97;;;23.50;28.80;;;;;;5129161;27;20091;-66
2021/12/28 08:52:23;;;;;;;6.85;3.83;;;23.50;28.60;;;;;;5125840;27;20445;-66
2021/12/28 08:54:51;;;;;;;3.67;2.92;;;23.50;28.60;;;;;;5125767;27;20047;-67
2021/12/28 08:57:19;;;;;;;3.22;2.88;;;23.60;28.80;;;;;;5126446;27;20043;-70
2021/12/28 08:59:46;;;;;;;3.10;2.80;;;23.60;28.70;;;;;;5128775;27;20071;-66
2021/12/28 09:02:38;;;;;;;3.38;3.08;;;23.60;28.70;;;;;;5127133;27;20047;-63
2021/12/28 09:05:06;;;;;;;3.22;2.92;;;23.70;28.70;;;;;;5122194;27;20062;-65
2021/12/28 09:07:33;;;;;;;3.78;3.03;;;23.70;28.70;;;;;;5107486;27;20074;-66
2021/12/28 09:10:01;;;;;;;3.83;3.53;;;23.70;28.90;;;;;;5128080;27;20071;-67
2021/12/28 09:12:28;;;;;;;4.03;3.20;;;23.80;28.90;;;;;;5127759;27;20130;-63
2021/12/28 09:14:55;;;;;;;4.00;3.05;;;23.80;28.80;;;;;;5122837;27;20063;-69
2021/12/28 09:17:22;;;;;;;10.98;3.42;;;23.80;28.80;;;;;;5124995;27;20400;-68
2021/12/28 09:19:49;;;;;;;4.82;3.15;;;23.90;28.80;;;;;;5103820;27;20073;-67
2021/12/28 09:22:16;;;;;;;4.00;3.35;;;23.90;28.80;;;;;;5122605;27;20138;-66
2021/12/28 09:24:44;;;;;;;4.15;2.70;;;23.90;28.80;;;;;;5122326;27;20042;-72
2021/12/28 09:27:17;;;;;;;5.78;2.90;;;23.90;28.80;;;;;;5122346;27;20058;-69
2021/12/28 09:29:44;;;;;;;4.82;2.85;;;24.00;28.80;;;;;;5109545;27;20039;-70
2021/12/28 09:32:18;;;;;;;4.45;3.75;;;24.00;28.80;;;;;;5125134;27;20043;-69
2021/12/28 09:34:48;;;;;;;4.03;3.42;;;24.00;28.80;;;;;;5125265;27;20067;-65
2021/12/28 09:37:16;;;;;;;6.63;3.05;;;24.00;28.70;;;;;;5119988;27;20046;-66
2021/12/28 09:39:43;;;;;;;4.55;3.58;;;24.00;28.60;;;;;;5111186;27;20552;-69
2021/12/28 09:42:12;;;;;;;3.83;3.22;;;24.10;28.60;;;;;;5126264;27;20308;-68
2021/12/28 09:44:43;;;;;;;4.78;3.45;;;24.10;28.50;;;;;;5122743;27;20047;-70
2021/12/28 09:50:52;;;;;;;6.03;3.90;;;24.20;28.40;;;;;;5127310;27;20057;-68
2021/12/28 09:53:19;;;;;;;5.75;3.70;;;24.20;28.30;;;;;;5109801;28;20416;-69
2021/12/28 09:55:47;;;;;;;5.82;3.63;;;24.20;28.20;;;;;;5113868;27;20042;-70
2021/12/28 09:58:14;;;;;;;4.55;4.00;;;24.30;28.20;;;;;;5134593;27;20100;-72
2021/12/28 10:01:02;;;;;;;4.35;3.75;;;24.30;28.20;;;;;;5122686;28;20046;-65
2021/12/28 10:03:30;;;;;;;4.20;3.78;;;24.40;28.20;;;;;;5095334;28;20126;-66
2021/12/28 10:05:57;;;;;;;4.35;3.40;;;24.40;28.10;;;;;;5124435;28;20277;-69
2021/12/28 10:08:27;;;;;;;4.43;3.80;;;24.40;28.10;;;;;;5127860;27;20079;-70
2021/12/28 10:10:57;;;;;;;4.43;3.20;;;24.40;28.10;;;;;;5110075;27;20055;-71
2021/12/28 10:13:30;;;;;;;4.57;3.88;;;24.50;28.10;;;;;;5126404;27;20088;-70
2021/12/28 10:15:57;;;;;;;5.93;3.67;;;24.50;28.10;;;;;;5129005;27;20113;-65
2021/12/28 10:18:25;;;;;;;10.20;3.97;;;24.50;27.90;;;;;;5128781;27;20047;-67
2021/12/28 10:20:58;;;;;;;4.15;3.67;;;24.50;27.80;;;;;;5125627;27;20047;-69
2021/12/28 10:23:29;;;;;;;6.45;4.30;;;24.50;27.80;;;;;;5106248;27;20551;-67
2021/12/28 10:26:00;;;;;;;6.32;4.57;;;24.50;27.90;;;;;;5123183;27;20152;-68
2021/12/28 10:28:34;;;;;;;5.68;4.68;;;24.50;27.80;;;;;;5128859;27;20135;-69
2021/12/28 10:31:17;;;;;;;11.30;4.45;;;24.60;27.80;;;;;;5128662;27;20127;-69
2021/12/28 10:33:44;;;;;;;6.25;4.22;;;24.60;27.80;;;;;;5127430;27;20047;-70
2021/12/28 10:36:15;;;;;;;6.13;4.22;;;24.60;27.80;;;;;;5126529;27;20067;-71
2021/12/28 10:38:47;;;;;;;;;;;24.70;27.80;;;;;;5131651;27;20104;-67
2021/12/28 10:41:17;;;;;;;7.57;4.63;;;24.70;27.80;;;;;;5130816;27;20018;-70
2021/12/28 10:43:49;;;;;;;7.47;4.22;;;24.70;27.80;;;;;;5133282;27;20082;-66
2021/12/28 10:46:20;;;;;;;7.47;3.92;;;24.70;27.80;;;;;;5124628;27;20125;-73
2021/12/28 10:48:53;;;;;;;9.57;4.50;;;24.70;27.70;;;;;;5132218;27;20107;-69
2021/12/28 10:51:28;;;;;;;9.00;4.82;;;24.70;27.70;;;;;;5133454;27;20088;-70
2021/12/28 10:54:12;;;;;;;6.50;4.28;;;24.70;27.70;;;;;;5132642;27;20047;-68
2021/12/28 10:56:56;;;;;;;9.52;5.25;;;24.70;27.70;;;;;;5126493;27;20036;-70
2021/12/28 10:59:26;;;;;;;5.07;4.18;;;24.80;27.70;;;;;;5112732;28;21133;-71
2021/12/28 11:01:54;;;;;;;8.10;4.65;;;24.80;27.60;;;;;;5113278;28;20044;-68
2021/12/28 11:04:37;;;;;;;6.25;5.10;;;24.90;27.60;;;;;;5114219;27;20147;-74
2021/12/28 11:07:06;;;;;;;9.15;4.95;;;24.90;27.70;;;;;;5131159;27;20043;-74
2021/12/28 11:09:34;;;;;;;5.87;4.60;;;24.90;27.70;;;;;;5134051;27;20134;-72
2021/12/28 11:12:02;;;;;;;6.70;4.88;;;24.90;27.70;;;;;;5115239;27;20035;-69
2021/12/28 11:14:30;;;;;;;13.75;4.93;;;24.90;27.70;;;;;;5134336;27;20051;-69
2021/12/28 11:17:00;;;;;;;5.53;4.80;;;25.00;27.70;;;;;;5132215;27;20126;-72
2021/12/28 11:19:29;;;;;;;6.72;5.03;;;25.00;27.60;;;;;;5115096;27;20047;-71
2021/12/28 11:22:04;;;;;;;6.40;5.20;;;25.00;27.50;;;;;;5132250;27;20134;-73
2021/12/28 11:24:34;;;;;;;8.07;5.35;;;25.10;27.50;;;;;;5132401;27;20423;-67
2021/12/28 11:27:04;;;;;;;6.72;5.20;;;25.10;27.70;;;;;;5126317;27;20055;-65
2021/12/28 11:29:51;;;;;;;11.48;5.78;;;25.10;28.20;;;;;;5134154;27;20122;-65
2021/12/28 11:32:20;;;;;;;9.82;4.88;;;25.10;28.80;;;;;;5133507;27;20076;-70
2021/12/28 11:34:48;;;;;;;10.80;5.70;;;25.10;28.40;;;;;;5149450;27;20491;-72
2021/12/28 11:37:23;;;;;;;9.00;5.05;;;25.20;28.30;;;;;;5130944;27;20051;-74
2021/12/28 11:40:00;;;;;;;6.93;5.05;;;25.20;28.00;;;;;;5132177;27;20078;-66
2021/12/28 11:42:29;;;;;;;6.38;5.15;;;25.20;27.80;;;;;;5131846;27;20086;-72
2021/12/28 11:44:56;;;;;;;7.35;5.72;;;25.20;27.70;;;;;;5132957;27;20062;-73
2021/12/28 11:47:25;;;;;;;8.27;5.20;;;25.20;27.60;;;;;;5128807;27;20124;-72
2021/12/28 11:49:56;;;;;;;7.13;5.22;;;25.20;27.60;;;;;;5132552;27;20053;-71
2021/12/28 11:52:24;;;;;;;8.93;5.97;;;25.30;27.60;;;;;;5133330;27;20062;-71
2021/12/28 11:54:52;;;;;;;7.45;5.30;;;25.30;27.60;;;;;;5135163;27;20122;-75
2021/12/28 11:57:26;;;;;;;9.57;5.13;;;25.30;27.50;;;;;;5134100;27;20471;-68
2021/12/28 12:00:06;;;;;;;9.95;5.50;;;25.30;27.80;;;;;;5153984;27;20468;-70
2021/12/28 12:02:35;;;;;;;;;;;25.30;28.30;;;;;;5152795;27;20053;-71
2021/12/28 12:05:13;;;;;;;9.93;6.50;;;25.40;28.70;;;;;;5153050;27;19925;-74
2021/12/28 12:07:40;;;;;;;7.05;5.32;;;25.30;28.50;;;;;;5127239;27;20487;-72
2021/12/28 12:10:11;;;;;;;11.77;6.28;;;25.30;28.50;;;;;;5153233;27;20127;-75
2021/12/28 12:12:54;;;;;;;7.38;5.65;;;25.30;28.30;;;;;;5152603;27;20047;-68
2021/12/28 12:15:23;;;;;;;6.10;5.22;;;25.30;28.20;;;;;;5152561;27;20038;-71
2021/12/28 12:17:55;;;;;;;11.98;5.60;;;25.30;28.20;;;;;;5139628;27;20507;-73
2021/12/28 12:20:30;;;;;;;8.85;6.38;;;25.30;28.20;;;;;;5130911;27;20040;-73
2021/12/28 12:23:13;;;;;;;7.50;6.55;;;25.30;28.10;;;;;;5130926;27;20059;-71
2021/12/28 12:25:53;;;;;;;8.85;7.03;;;25.30;28.10;;;;;;5130436;27;20050;-70
2021/12/28 12:28:29;;;;;;;8.68;7.10;;;25.20;28.10;;;;;;5130281;27;20104;-68
2021/12/28 12:30:57;;;;;;;7.47;6.20;;;25.20;28.20;;;;;;5131989;27;20043;-65
2021/12/28 12:33:34;;;;;;;7.90;6.28;;;25.20;28.10;;;;;;5113796;27;20080;-70
2021/12/28 12:36:02;;;;;;;10.23;6.53;;;25.20;28.10;;;;;;5123757;27;20074;-74
2021/12/28 12:38:35;;;;;;;9.02;6.30;;;25.20;28.00;;;;;;5130264;27;20058;-75
2021/12/28 12:41:17;;;;;;;8.90;6.63;;;25.20;28.00;;;;;;5131933;27;20039;-72
2021/12/28 12:43:52;;;;;;;9.65;6.40;;;25.20;28.00;;;;;;5131323;27;20057;-71
2021/12/28 12:46:29;;;;;;;8.90;7.32;;;25.20;27.90;;;;;;5131091;27;20454;-73
2021/12/28 12:48:59;;;;;;;9.73;7.30;;;25.30;27.80;;;;;;5110899;28;20130;-72
2021/12/28 12:51:33;;;;;;;11.30;6.45;;;25.30;27.80;;;;;;5110984;28;20043;-74
2021/12/28 12:54:22;;;;;;;8.40;6.15;;;25.30;27.70;;;;;;5111006;28;20101;-75
2021/12/28 12:57:02;;;;;;;7.72;6.72;;;25.30;27.70;;;;;;5112519;27;20047;-72
2021/12/28 12:59:31;;;;;;;;;;;25.30;27.60;;;;;;5133119;27;20381;-75
2021/12/28 13:02:12;;;;;;;8.93;6.65;;;25.30;27.50;;;;;;5096053;27;20012;-71
2021/12/28 13:04:45;;;;;;;10.73;7.40;;;25.30;27.50;;;;;;5114633;27;20133;-75
2021/12/28 13:07:23;;;;;;;9.25;6.88;;;25.30;27.50;;;;;;5130235;27;20047;-75